Accueil
METAR-TAF:

METAR-TAF

Aéroports :

Ndjamena, Tchad

Aéroport international de Ndjamena

latitude: 12-08N, longitude: 015-02E, altitude: 295 m

Observation

Le bulletin a été fait il y a 1 heure et 34 minutes, à 23:00 UTC
Vent 7 kt de nord-est
Température 25°C
Humidité 26%
Pression 1012 hPa
Visibilité 10 km ou plus
pas de nuages en-dessous de 1500 mètres et pas de cumulonimbus.

METAR: FTTJ 132300Z 04007KT CAVOK 25/04 Q1012 NOSIG

Heure: 01:34 (00:34 UTC)

Prévision

Le bulletin a été fait il y a 1 heure et 29 minutes, à 23:05 UTC
Prévision valable du 14 à 00 UTC au 15 à 06 UTC
Vent 8 kt de nord/nord-est
Visibilité 10 km ou plus
pas de nuages en-dessous de 1500 mètres et pas de cumulonimbus.
Temporairement
du 14 à 08 UTC au 14 à 14 UTC
Vent 16 kt de est
Visibilité: 4000 m
Chasse-sable élevée

TAF: FTTJ 132305Z 1400/1506 02008KT CAVOK TEMPO 1408/1414 08016KT 4000 BLSA

Observations et prévisions météorologiques de plus de 4000 aéroports (messages METAR et TAF).

Les stations disponibles sont représentées par des disques jaunes et rouges sur la carte.

Passer la souris dessus pour voir le nom de la station.

Cliquer dessus pour voir les observations et prévisions météorologiques.

Pour changer de carte: cliquez sur les boutons verts avec une croix noire pour zoomer, sur le bouton vert avec un tiret pour effectuer un zoom arrière, ou sur les flèches vertes pour les cartes adjacentes.


METAR-TAF: